South Beach Lady — WDG2209 — position and weather

sailwx.info

Track history (hours):
 
Tides and Currents Weather Stations Pressure Air Temp Water Temp Dewpoint Dewpoint Depression Visibility Wind Speed Wind Dir Waves Ship Positions

South Beach Lady

Owner: South Beach Lady, Winter Haven, FL. More information available from US FCC via Universal Licensing System and Coast Guard Vessel Documentation Center.

Last reported at 2018-Jun-17 12:03 UTC. Time now 2018-Jun-19 12:18 UTC.
Position N 26°01' W 080°07'.

; draft 1.8 m.

Type: Ship. MMSI: 338188048.

Date/timePositionNaut miles runAvg speedWind from/ knotsBaromVisibWave heightAir tempDewpointWater temp
2018-Jun-17 12:03N 26°01' W 080°07'0 0.1
2018-Jun-17 12:00N 26°01' W 080°07'2 4.7
2018-Jun-17 11:30N 26°04' W 080°07'2 3.4
2018-Jun-17 11:00N 26°05' W 080°06'4 7.5
2018-Jun-17 10:30N 26°01' W 080°06'4 7.4
2018-Jun-17 10:00N 25°58' W 080°06'4 7.5
2018-Jun-17 09:30N 25°54' W 080°06'4 7.6
2018-Jun-17 09:00N 25°50' W 080°07'4 7.9
2018-Jun-17 08:30N 25°46' W 080°07'4 7.1
2018-Jun-17 08:00N 25°46' W 080°11'0 0.4
2018-Jun-17 07:30N 25°47' W 080°11'0 0.0
2018-Jun-17 07:00N 25°47' W 080°11'2 4.8
2018-Jun-17 06:30N 25°44' W 080°11'0 0.3
2018-Jun-17 06:00N 25°44' W 080°11'1 1.4
2018-Jun-17 05:30N 25°44' W 080°12'0 0.9
2018-Jun-17 05:00N 25°43' W 080°12'1 1.0
2018-Jun-17 04:30N 25°43' W 080°11'2 4.2
2018-Jun-17 04:00N 25°46' W 080°11'1 2.0
2018-Jun-17 03:30N 25°47' W 080°11'0 0.0
2018-Jun-17 03:00N 25°47' W 080°11'0 0.0
2018-Jun-17 02:30N 25°47' W 080°11'2 4.3
2018-Jun-17 02:00N 25°46' W 080°09'3 5.3
2018-Jun-17 01:30N 25°48' W 080°07'3 7.0
2018-Jun-17 01:00N 25°51' W 080°06'4 7.0
2018-Jun-17 00:30N 25°55' W 080°06'3 7.1
2018-Jun-17 00:00N 25°58' W 080°06'3 6.7
2018-Jun-16 23:30N 26°02' W 080°06'3 6.9
2018-Jun-16 23:00N 26°05' W 080°06'2 4.9
2018-Jun-16 22:30N 26°03' W 080°07'  
2018-Jun-13 05:22N 26°01' W 080°07'1 2.0
2018-Jun-13 05:00N 26°00' W 080°07'3 5.1
2018-Jun-13 04:30N 25°58' W 080°07'3 6.4
2018-Jun-13 04:00N 25°55' W 080°08'3 6.7
2018-Jun-13 03:30N 25°52' W 080°09'2 4.2
2018-Jun-13 03:00N 25°50' W 080°07'1 1.4
2018-Jun-13 02:30N 25°49' W 080°07'0 0.0
2018-Jun-13 02:00N 25°49' W 080°07'1 2.8
2018-Jun-13 01:30N 25°51' W 080°07'1 1.4
2018-Jun-13 01:00N 25°50' W 080°08'1 2.9
2018-Jun-13 00:30N 25°49' W 080°09'2 3.4
2018-Jun-13 00:00N 25°50' W 080°08'1 1.6
2018-Jun-12 23:30N 25°50' W 080°07'1 1.7
2018-Jun-12 23:00N 25°49' W 080°07'0 0.0
2018-Jun-12 22:30N 25°49' W 080°07'0 0.0
2018-Jun-12 22:00N 25°49' W 080°07'0 0.0
2018-Jun-12 21:30N 25°49' W 080°07'0 0.0
2018-Jun-12 21:00N 25°49' W 080°07'0 0.0
2018-Jun-12 20:30N 25°49' W 080°07'0 0.0
2018-Jun-12 20:00N 25°49' W 080°07'2 3.2
2018-Jun-12 19:30N 25°51' W 080°07'1 2.7
2018-Jun-12 19:00N 25°51' W 080°09'1 2.0
2018-Jun-12 18:30N 25°52' W 080°10'1 1.1
2018-Jun-12 18:00N 25°52' W 080°09'3 5.2
2018-Jun-12 17:30N 25°54' W 080°08'4 7.3
2018-Jun-12 17:00N 25°58' W 080°07'3 6.3
2018-Jun-12 16:30N 26°01' W 080°07'  
2018-Jun-10 03:45N 26°01' W 080°07'1 2.6
2018-Jun-10 03:30N 26°01' W 080°07'2 4.7
2018-Jun-10 03:00N 25°58' W 080°07'2 4.2
2018-Jun-10 02:30N 25°56' W 080°08'3 5.7
2018-Jun-10 02:00N 25°53' W 080°08'3 6.8
2018-Jun-10 01:31N 25°50' W 080°10'3 6.5
2018-Jun-10 01:00N 25°47' W 080°11'1 1.3
2018-Jun-10 00:30N 25°47' W 080°11'0 0.0
2018-Jun-10 00:00N 25°47' W 080°11'1 1.7
2018-Jun-09 23:30N 25°46' W 080°11'3 5.1
2018-Jun-09 23:00N 25°43' W 080°11'0 0.8
2018-Jun-09 22:30N 25°43' W 080°12'1 2.1
2018-Jun-09 22:00N 25°44' W 080°11'2 4.7
2018-Jun-09 21:30N 25°46' W 080°11'0 0.7
2018-Jun-09 21:00N 25°47' W 080°11'0 0.0
2018-Jun-09 20:30N 25°47' W 080°11'0 0.0
2018-Jun-09 20:00N 25°47' W 080°11'0 0.0
2018-Jun-09 19:30N 25°47' W 080°11'0 0.0
2018-Jun-09 19:00N 25°47' W 080°11'0 0.0
2018-Jun-09 18:31N 25°47' W 080°11'0 0.0
2018-Jun-09 18:00N 25°47' W 080°11'1 2.0
2018-Jun-09 17:30N 25°48' W 080°11'2 3.7
2018-Jun-09 17:00N 25°49' W 080°10'3 5.7
2018-Jun-09 16:30N 25°52' W 080°09'3 5.2
2018-Jun-09 16:01N 25°54' W 080°08'7 6.8
2018-Jun-09 15:00N 26°01' W 080°07'0 0.6
2018-Jun-09 14:30N 26°01' W 080°07'0 0.0
2018-Jun-09 14:00N 26°01' W 080°07'  
Track history (hours):
 
Tides and Currents Weather Stations Pressure Air Temp Water Temp Dewpoint Dewpoint Depression Visibility Wind Speed Wind Dir Waves Ship Positions

South Beach Lady

Owner: South Beach Lady, Winter Haven, FL. More information available from US FCC via Universal Licensing System and Coast Guard Vessel Documentation Center.

Last reported at 2018-Jun-17 12:03 UTC. Time now 2018-Jun-19 12:18 UTC.
Position N 26°01' W 080°07'.

; draft 1.8 m.

Type: Ship. MMSI: 338188048.

Date/timePositionNaut miles runAvg speedWind from/ knotsBaromVisibWave heightAir tempDewpointWater temp
2018-Jun-17 12:03N 26°01' W 080°07'0 0.1
2018-Jun-17 12:00N 26°01' W 080°07'2 4.7
2018-Jun-17 11:30N 26°04' W 080°07'2 3.4
2018-Jun-17 11:00N 26°05' W 080°06'4 7.5
2018-Jun-17 10:30N 26°01' W 080°06'4 7.4
2018-Jun-17 10:00N 25°58' W 080°06'4 7.5
2018-Jun-17 09:30N 25°54' W 080°06'4 7.6
2018-Jun-17 09:00N 25°50' W 080°07'4 7.9
2018-Jun-17 08:30N 25°46' W 080°07'4 7.1
2018-Jun-17 08:00N 25°46' W 080°11'0 0.4
2018-Jun-17 07:30N 25°47' W 080°11'0 0.0
2018-Jun-17 07:00N 25°47' W 080°11'2 4.8
2018-Jun-17 06:30N 25°44' W 080°11'0 0.3
2018-Jun-17 06:00N 25°44' W 080°11'1 1.4
2018-Jun-17 05:30N 25°44' W 080°12'0 0.9
2018-Jun-17 05:00N 25°43' W 080°12'1 1.0
2018-Jun-17 04:30N 25°43' W 080°11'2 4.2
2018-Jun-17 04:00N 25°46' W 080°11'1 2.0
2018-Jun-17 03:30N 25°47' W 080°11'0 0.0
2018-Jun-17 03:00N 25°47' W 080°11'0 0.0
2018-Jun-17 02:30N 25°47' W 080°11'2 4.3
2018-Jun-17 02:00N 25°46' W 080°09'3 5.3
2018-Jun-17 01:30N 25°48' W 080°07'3 7.0
2018-Jun-17 01:00N 25°51' W 080°06'4 7.0
2018-Jun-17 00:30N 25°55' W 080°06'3 7.1
2018-Jun-17 00:00N 25°58' W 080°06'3 6.7
2018-Jun-16 23:30N 26°02' W 080°06'3 6.9
2018-Jun-16 23:00N 26°05' W 080°06'2 4.9
2018-Jun-16 22:30N 26°03' W 080°07'  
2018-Jun-13 05:22N 26°01' W 080°07'1 2.0
2018-Jun-13 05:00N 26°00' W 080°07'3 5.1
2018-Jun-13 04:30N 25°58' W 080°07'3 6.4
2018-Jun-13 04:00N 25°55' W 080°08'3 6.7
2018-Jun-13 03:30N 25°52' W 080°09'2 4.2
2018-Jun-13 03:00N 25°50' W 080°07'1 1.4
2018-Jun-13 02:30N 25°49' W 080°07'0 0.0
2018-Jun-13 02:00N 25°49' W 080°07'1 2.8
2018-Jun-13 01:30N 25°51' W 080°07'1 1.4
2018-Jun-13 01:00N 25°50' W 080°08'1 2.9
2018-Jun-13 00:30N 25°49' W 080°09'2 3.4
2018-Jun-13 00:00N 25°50' W 080°08'1 1.6
2018-Jun-12 23:30N 25°50' W 080°07'1 1.7
2018-Jun-12 23:00N 25°49' W 080°07'0 0.0
2018-Jun-12 22:30N 25°49' W 080°07'0 0.0
2018-Jun-12 22:00N 25°49' W 080°07'0 0.0
2018-Jun-12 21:30N 25°49' W 080°07'0 0.0
2018-Jun-12 21:00N 25°49' W 080°07'0 0.0
2018-Jun-12 20:30N 25°49' W 080°07'0 0.0
2018-Jun-12 20:00N 25°49' W 080°07'2 3.2
2018-Jun-12 19:30N 25°51' W 080°07'1 2.7
2018-Jun-12 19:00N 25°51' W 080°09'1 2.0
2018-Jun-12 18:30N 25°52' W 080°10'1 1.1
2018-Jun-12 18:00N 25°52' W 080°09'3 5.2
2018-Jun-12 17:30N 25°54' W 080°08'4 7.3
2018-Jun-12 17:00N 25°58' W 080°07'3 6.3
2018-Jun-12 16:30N 26°01' W 080°07'  
2018-Jun-10 03:45N 26°01' W 080°07'1 2.6
2018-Jun-10 03:30N 26°01' W 080°07'2 4.7
2018-Jun-10 03:00N 25°58' W 080°07'2 4.2
2018-Jun-10 02:30N 25°56' W 080°08'3 5.7
2018-Jun-10 02:00N 25°53' W 080°08'3 6.8
2018-Jun-10 01:31N 25°50' W 080°10'3 6.5
2018-Jun-10 01:00N 25°47' W 080°11'1 1.3
2018-Jun-10 00:30N 25°47' W 080°11'0 0.0
2018-Jun-10 00:00N 25°47' W 080°11'1 1.7
2018-Jun-09 23:30N 25°46' W 080°11'3 5.1
2018-Jun-09 23:00N 25°43' W 080°11'0 0.8
2018-Jun-09 22:30N 25°43' W 080°12'1 2.1
2018-Jun-09 22:00N 25°44' W 080°11'2 4.7
2018-Jun-09 21:30N 25°46' W 080°11'0 0.7
2018-Jun-09 21:00N 25°47' W 080°11'0 0.0
2018-Jun-09 20:30N 25°47' W 080°11'0 0.0
2018-Jun-09 20:00N 25°47' W 080°11'0 0.0
2018-Jun-09 19:30N 25°47' W 080°11'0 0.0
2018-Jun-09 19:00N 25°47' W 080°11'0 0.0
2018-Jun-09 18:31N 25°47' W 080°11'0 0.0
2018-Jun-09 18:00N 25°47' W 080°11'1 2.0
2018-Jun-09 17:30N 25°48' W 080°11'2 3.7
2018-Jun-09 17:00N 25°49' W 080°10'3 5.7
2018-Jun-09 16:30N 25°52' W 080°09'3 5.2
2018-Jun-09 16:01N 25°54' W 080°08'7 6.8
2018-Jun-09 15:00N 26°01' W 080°07'0 0.6
2018-Jun-09 14:30N 26°01' W 080°07'0 0.0
2018-Jun-09 14:00N 26°01' W 080°07'  

Dump ship's entire track history